Terminal Aerodrome Forecast
Issued by NWS

Home | Current Version | Previous Version | Graphics & Text | Print | Product List | Glossary On
Versions: 1 2 3 4 5 6 7 8 9 10 11 12 13 14 15 16 17 18
506
FTUS43 KMPX 302021 AAA
TAFRWF
TAF AMD
KRWF 302021Z 3020/0118 32012KT 4SM -RASN BR BKN007 OVC014
      TEMPO 3020/3024 4SM -RASN BR SCT007 OVC014
     FM010000 32010KT 5SM -RASN BR SCT004 OVC006
     FM010200 32008KT 4SM -SN OVC008
     FM010600 32011KT P6SM OVC010
     FM011200 33008KT P6SM OVC020=

USA.gov is the U.S. government's official web portal to all federal, state and local government web resources and services.